createdAt,value
2019-03-31T00:00:34.170Z,10.00
2019-03-31T00:03:03.600Z,10.27
2019-03-31T00:05:33.088Z,10.00
2019-03-31T00:08:02.483Z,11.10
2019-03-31T00:10:31.861Z,12.82
2019-03-31T00:13:01.290Z,8.50
2019-03-31T00:15:31.095Z,8.50
2019-03-31T00:18:00.444Z,11.57
2019-03-31T00:20:29.799Z,11.93
2019-03-31T00:22:59.752Z,12.23
2019-03-31T00:25:29.091Z,10.87
2019-03-31T00:27:58.455Z,11.00
2019-03-31T00:30:27.811Z,12.27
2019-03-31T00:32:57.149Z,11.03
2019-03-31T00:35:26.507Z,11.80
2019-03-31T00:37:55.905Z,12.03
2019-03-31T00:40:25.262Z,11.10
2019-03-31T00:42:54.615Z,11.57
2019-03-31T00:45:24.081Z,11.20
2019-03-31T00:47:53.440Z,11.63
2019-03-31T00:50:22.803Z,9.43
2019-03-31T00:52:52.195Z,11.37
2019-03-31T00:55:21.568Z,11.37
2019-03-31T00:57:50.902Z,8.87
2019-03-31T01:00:41.083Z,10.93
2019-03-31T01:03:10.759Z,9.93
2019-03-31T01:05:44.511Z,10.10
2019-03-31T01:08:14.369Z,11.70
2019-03-31T01:10:44.170Z,10.73
2019-03-31T01:13:14.478Z,11.87
2019-03-31T01:15:44.590Z,12.07
2019-03-31T01:18:15.149Z,8.83
2019-03-31T01:20:45.150Z,10.40
2019-03-31T01:23:14.532Z,9.10
2019-03-31T01:25:43.888Z,9.23
2019-03-31T01:28:13.387Z,10.23
2019-03-31T01:30:42.851Z,9.80
2019-03-31T01:33:14.148Z,10.43
2019-03-31T01:35:43.537Z,9.67
2019-03-31T01:38:13.113Z,11.30
2019-03-31T01:40:42.464Z,12.50
2019-03-31T01:43:11.906Z,10.77
2019-03-31T01:45:41.291Z,10.10
2019-03-31T01:48:10.652Z,11.20
2019-03-31T01:50:40.022Z,11.30
2019-03-31T01:53:09.433Z,12.67
2019-03-31T02:14:55.666Z,12.10
2019-03-31T02:17:25.026Z,12.07
2019-03-31T02:19:54.378Z,12.20
2019-03-31T02:22:23.749Z,11.67
2019-03-31T02:24:53.098Z,10.63
2019-03-31T02:27:22.466Z,13.70
2019-03-31T02:29:51.840Z,11.50
2019-03-31T02:32:24.024Z,9.87
2019-03-31T02:34:52.272Z,12.63
2019-03-31T02:37:22.041Z,11.40
2019-03-31T02:39:51.401Z,12.70
2019-03-31T02:42:20.757Z,13.20
2019-03-31T02:44:50.124Z,11.80
2019-03-31T02:47:19.489Z,13.07
2019-03-31T02:49:48.852Z,12.73
2019-03-31T02:52:18.266Z,13.00
2019-03-31T02:54:47.617Z,10.47
2019-03-31T02:57:19.069Z,14.13
2019-03-31T02:59:50.697Z,12.83
2019-03-31T03:02:40.630Z,10.90
2019-03-31T03:05:16.970Z,10.87
2019-03-31T03:07:32.111Z,13.43
2019-03-31T03:10:04.591Z,12.87
2019-03-31T03:12:37.423Z,10.47
2019-03-31T03:15:07.602Z,10.80
2019-03-31T03:17:37.357Z,11.30
2019-03-31T03:20:08.765Z,9.97
2019-03-31T03:22:38.115Z,11.33
2019-03-31T03:25:10.582Z,10.60
2019-03-31T03:27:39.951Z,12.53
2019-03-31T03:30:09.465Z,12.30
2019-03-31T03:32:39.293Z,9.90
2019-03-31T03:35:08.800Z,12.93
2019-03-31T03:37:38.151Z,10.60
2019-03-31T03:40:08.137Z,11.63
2019-03-31T03:42:37.532Z,11.07
2019-03-31T03:45:08.187Z,12.67
2019-03-31T03:47:37.588Z,12.70
2019-03-31T03:50:08.274Z,11.63
2019-03-31T03:52:37.652Z,11.27
2019-03-31T03:55:07.527Z,9.80
2019-03-31T03:57:36.896Z,12.93
2019-03-31T04:00:07.276Z,12.43
2019-03-31T04:02:36.658Z,11.93
2019-03-31T04:05:06.942Z,14.27
2019-03-31T04:07:36.293Z,12.17
2019-03-31T04:10:10.932Z,11.95
2019-03-31T04:12:40.300Z,10.27
2019-03-31T04:15:09.676Z,13.03
2019-03-31T04:17:39.034Z,12.53
2019-03-31T04:20:08.379Z,12.70
2019-03-31T04:22:38.068Z,10.43
2019-03-31T04:25:07.434Z,13.50
2019-03-31T04:27:36.795Z,10.10
2019-03-31T04:30:06.545Z,10.53
2019-03-31T04:32:38.769Z,11.53
2019-03-31T04:35:07.469Z,10.67
2019-03-31T04:37:36.834Z,11.00
2019-03-31T04:40:07.250Z,11.80
2019-03-31T04:42:36.589Z,11.87
2019-03-31T04:45:07.224Z,14.57
2019-03-31T04:47:36.637Z,14.07
2019-03-31T04:50:07.000Z,12.43
2019-03-31T04:52:36.360Z,13.83
2019-03-31T04:55:09.056Z,13.13
2019-03-31T04:57:38.419Z,10.30
2019-03-31T05:00:07.985Z,11.20
2019-03-31T05:02:37.396Z,11.90
2019-03-31T05:05:06.956Z,13.53
2019-03-31T05:07:36.321Z,11.90
2019-03-31T05:10:08.151Z,11.57
2019-03-31T05:12:37.521Z,14.10
2019-03-31T05:15:07.324Z,12.63
2019-03-31T05:17:37.103Z,14.70
2019-03-31T05:20:07.200Z,12.03
2019-03-31T05:22:36.555Z,11.07
2019-03-31T05:25:07.548Z,13.63
2019-03-31T05:27:36.941Z,13.50
2019-03-31T05:30:09.110Z,13.40
2019-03-31T05:32:38.872Z,13.23
2019-03-31T05:35:08.552Z,14.00
2019-03-31T05:37:50.203Z,12.33
2019-03-31T05:40:09.284Z,11.67
2019-03-31T05:42:38.704Z,13.77
2019-03-31T05:45:08.295Z,14.47
2019-03-31T05:47:37.696Z,13.57
2019-03-31T05:50:07.677Z,10.13
2019-03-31T05:52:37.037Z,12.80
2019-03-31T05:55:07.551Z,11.27
2019-03-31T05:57:36.913Z,13.20
2019-03-31T06:00:07.902Z,12.83
2019-03-31T06:02:37.277Z,11.77
2019-03-31T06:05:07.873Z,14.67
2019-03-31T06:07:37.245Z,13.10
2019-03-31T06:10:08.679Z,14.40
2019-03-31T06:12:38.040Z,16.40
2019-03-31T06:15:07.836Z,14.57
2019-03-31T06:17:37.232Z,15.60
2019-03-31T06:20:07.936Z,13.57
2019-03-31T06:22:37.304Z,15.50
2019-03-31T06:25:07.467Z,15.30
2019-03-31T06:27:37.458Z,14.63
2019-03-31T06:30:08.233Z,14.00
2019-03-31T06:32:37.623Z,15.10
2019-03-31T06:35:07.413Z,14.67
2019-03-31T06:37:36.763Z,14.83
2019-03-31T06:40:06.741Z,15.30
2019-03-31T06:42:36.095Z,14.50
2019-03-31T06:45:07.396Z,16.55
2019-03-31T06:47:36.811Z,15.77
2019-03-31T06:50:09.347Z,15.27
2019-03-31T06:52:38.726Z,16.57
2019-03-31T06:55:09.139Z,15.77
2019-03-31T06:57:38.569Z,13.87
2019-03-31T07:00:09.338Z,15.53
2019-03-31T07:02:38.719Z,15.83
2019-03-31T07:05:08.792Z,15.70
2019-03-31T07:07:38.165Z,15.03
2019-03-31T07:10:08.481Z,15.93
2019-03-31T07:12:37.995Z,15.67
2019-03-31T07:15:09.164Z,15.83
2019-03-31T07:17:39.028Z,16.30
2019-03-31T07:20:10.799Z,16.47
2019-03-31T07:22:40.285Z,15.30
2019-03-31T07:25:13.149Z,16.80
2019-03-31T07:27:42.561Z,16.70
2019-03-31T07:30:17.272Z,16.70
2019-03-31T07:32:46.728Z,17.23
2019-03-31T07:35:18.805Z,23.00
2019-03-31T07:37:48.007Z,24.70
2019-03-31T07:40:21.198Z,26.20
2019-03-31T07:42:51.200Z,27.87
2019-03-31T07:45:21.068Z,26.97
2019-03-31T07:47:50.917Z,30.43
2019-03-31T07:50:20.599Z,30.37
2019-03-31T07:52:50.033Z,30.70
2019-03-31T07:55:20.622Z,33.33
2019-03-31T07:57:49.991Z,30.80
2019-03-31T08:00:22.594Z,31.47
2019-03-31T08:02:51.995Z,32.30
2019-03-31T08:05:32.463Z,32.30
2019-03-31T08:07:52.551Z,33.33
2019-03-31T08:10:22.454Z,32.53
2019-03-31T08:12:51.823Z,35.13
2019-03-31T08:15:21.344Z,34.43
2019-03-31T08:17:50.779Z,35.73
2019-03-31T08:20:20.964Z,36.43
2019-03-31T08:22:50.332Z,33.83
2019-03-31T08:25:21.031Z,32.13
2019-03-31T08:27:50.419Z,35.87
2019-03-31T08:30:20.207Z,36.40
2019-03-31T08:32:50.440Z,36.10
2019-03-31T08:35:19.895Z,37.30
2019-03-31T08:37:49.267Z,36.73
2019-03-31T08:40:18.799Z,37.50
2019-03-31T08:42:48.158Z,37.13
2019-03-31T08:45:17.758Z,36.53
2019-03-31T08:47:47.191Z,36.10
2019-03-31T08:50:17.492Z,38.33
2019-03-31T08:52:46.849Z,36.77
2019-03-31T08:55:16.767Z,36.43
2019-03-31T08:57:46.128Z,36.00
2019-03-31T09:00:21.184Z,35.53
2019-03-31T09:02:51.042Z,35.53
2019-03-31T09:05:20.394Z,34.90
2019-03-31T09:07:49.746Z,35.37
2019-03-31T09:10:19.194Z,35.03
2019-03-31T09:12:48.941Z,33.97
2019-03-31T09:15:18.466Z,34.77
2019-03-31T09:17:47.858Z,34.43
2019-03-31T09:20:18.638Z,32.80
2019-03-31T09:22:48.022Z,31.80
2019-03-31T09:25:17.422Z,33.47
2019-03-31T09:27:46.787Z,32.07
2019-03-31T09:30:17.765Z,32.70
2019-03-31T09:32:47.131Z,32.67
2019-03-31T09:35:17.861Z,31.77
2019-03-31T09:37:47.227Z,32.27
2019-03-31T09:40:17.071Z,32.57
2019-03-31T09:42:46.434Z,34.53
2019-03-31T09:45:15.990Z,33.67
2019-03-31T09:47:45.700Z,32.23
2019-03-31T09:50:17.536Z,33.37
2019-03-31T09:52:47.186Z,32.43
2019-03-31T09:55:16.663Z,32.57
2019-03-31T09:57:46.032Z,32.13
2019-03-31T10:00:20.010Z,32.83
2019-03-31T10:02:49.434Z,32.20
2019-03-31T10:05:18.932Z,33.97
2019-03-31T10:07:48.451Z,33.57
2019-03-31T10:10:33.982Z,34.13
2019-03-31T10:13:03.348Z,34.07
2019-03-31T10:15:32.715Z,35.53
2019-03-31T10:18:02.758Z,33.80
2019-03-31T10:20:32.117Z,33.10
2019-03-31T10:23:01.479Z,35.43
2019-03-31T10:25:30.946Z,37.70
2019-03-31T10:28:00.307Z,35.27
2019-03-31T10:30:38.324Z,35.87
2019-03-31T10:33:08.836Z,36.20
2019-03-31T10:35:38.193Z,35.67
2019-03-31T10:38:09.444Z,35.03
2019-03-31T10:40:41.536Z,35.10
2019-03-31T10:43:10.903Z,37.23
2019-03-31T10:45:40.282Z,38.50
2019-03-31T10:48:20.196Z,36.47
2019-03-31T10:50:40.813Z,36.00
2019-03-31T10:53:13.658Z,36.73
2019-03-31T10:55:43.014Z,35.10
2019-03-31T10:58:12.368Z,35.67
2019-03-31T11:00:44.569Z,37.30
2019-03-31T11:03:12.925Z,33.83
2019-03-31T11:05:42.434Z,35.87
2019-03-31T11:08:11.807Z,37.03
2019-03-31T11:10:41.193Z,37.13
2019-03-31T11:13:10.576Z,34.50
2019-03-31T11:15:40.049Z,34.77
2019-03-31T11:18:09.415Z,36.20
2019-03-31T11:20:38.794Z,34.27
2019-03-31T11:23:21.871Z,36.47
2019-03-31T11:25:51.220Z,32.83
2019-03-31T11:28:20.589Z,34.20
2019-03-31T11:30:50.661Z,32.17
2019-03-31T11:33:20.012Z,34.13
2019-03-31T11:35:49.393Z,33.73
2019-03-31T11:38:18.793Z,33.23
2019-03-31T11:40:49.182Z,32.30
2019-03-31T11:43:18.568Z,32.80
2019-03-31T11:45:48.072Z,32.67
2019-03-31T11:48:17.441Z,31.90
2019-03-31T11:50:46.806Z,33.40
2019-03-31T11:53:17.050Z,32.90
2019-03-31T11:55:46.421Z,31.50
2019-03-31T11:58:15.817Z,32.77
2019-03-31T12:00:53.105Z,33.53
2019-03-31T12:03:22.477Z,31.77
2019-03-31T12:05:51.928Z,30.63
2019-03-31T12:08:21.814Z,30.53
2019-03-31T12:10:51.199Z,28.93
2019-03-31T12:13:20.569Z,30.40
2019-03-31T12:15:49.963Z,31.13
2019-03-31T12:18:19.344Z,29.37
2019-03-31T12:20:48.728Z,28.63
2019-03-31T12:23:18.118Z,27.90
2019-03-31T12:25:47.551Z,27.43
2019-03-31T12:28:16.956Z,25.57
2019-03-31T12:30:46.732Z,25.37
2019-03-31T12:33:16.119Z,26.00
2019-03-31T12:35:45.498Z,26.70
2019-03-31T12:38:14.932Z,25.07
2019-03-31T12:40:44.307Z,25.67
2019-03-31T12:43:14.149Z,25.73
2019-03-31T12:45:43.629Z,25.53
2019-03-31T12:48:12.988Z,25.80
2019-03-31T12:50:42.374Z,25.60
2019-03-31T12:53:12.302Z,24.93
2019-03-31T12:55:41.663Z,25.07
2019-03-31T12:58:11.030Z,24.80
2019-03-31T13:00:40.417Z,25.43
2019-03-31T13:03:09.777Z,25.53
2019-03-31T13:05:39.148Z,23.90
2019-03-31T13:08:08.555Z,23.00
2019-03-31T13:10:37.948Z,23.70
2019-03-31T13:13:07.449Z,24.37
2019-03-31T13:15:36.890Z,24.33
2019-03-31T13:18:06.408Z,23.97
2019-03-31T13:20:35.765Z,23.70
2019-03-31T13:23:05.217Z,23.90
2019-03-31T13:25:34.578Z,23.57
2019-03-31T13:28:05.687Z,24.23
2019-03-31T13:30:35.189Z,25.13
2019-03-31T13:33:04.551Z,25.00
2019-03-31T13:35:33.916Z,24.23
2019-03-31T13:38:10.785Z,24.53
2019-03-31T13:40:34.521Z,25.30
2019-03-31T13:43:03.952Z,24.07
2019-03-31T13:45:33.972Z,25.00
2019-03-31T13:48:03.378Z,25.60
2019-03-31T13:50:33.508Z,24.53
2019-03-31T13:53:03.150Z,27.03
2019-03-31T13:55:32.496Z,26.77
2019-03-31T13:58:03.227Z,26.80
2019-03-31T14:00:40.750Z,26.00
2019-03-31T14:03:10.467Z,25.83
2019-03-31T14:05:39.840Z,25.70
2019-03-31T14:08:09.331Z,24.93
2019-03-31T14:10:38.710Z,23.73
2019-03-31T14:13:08.085Z,25.27
2019-03-31T14:15:37.474Z,23.80
2019-03-31T14:18:06.857Z,24.90
2019-03-31T14:20:36.214Z,23.57
2019-03-31T14:23:06.045Z,23.43
2019-03-31T14:25:35.405Z,24.30
2019-03-31T14:28:04.776Z,23.97
2019-03-31T14:30:34.159Z,21.50
2019-03-31T14:33:03.529Z,22.67
2019-03-31T14:35:32.884Z,20.80
2019-03-31T14:38:02.389Z,20.00
2019-03-31T14:40:31.740Z,21.27
2019-03-31T14:43:01.123Z,20.57
2019-03-31T14:45:33.605Z,20.07
2019-03-31T14:48:03.382Z,19.33
2019-03-31T14:50:35.836Z,20.00
2019-03-31T14:53:05.788Z,20.33
2019-03-31T14:55:35.285Z,20.07
2019-03-31T14:58:07.780Z,21.00
2019-03-31T15:00:36.917Z,18.80
2019-03-31T15:03:06.528Z,19.80
2019-03-31T15:05:35.889Z,19.57
2019-03-31T15:08:05.604Z,19.33
2019-03-31T15:10:35.197Z,17.73
2019-03-31T15:13:04.625Z,18.77
2019-03-31T15:15:34.113Z,18.87
2019-03-31T15:18:03.604Z,16.77
2019-03-31T15:20:32.968Z,16.97
2019-03-31T15:23:02.680Z,17.83
2019-03-31T15:25:32.033Z,17.80
2019-03-31T15:28:01.486Z,17.03
2019-03-31T15:30:30.933Z,17.13
2019-03-31T15:33:00.319Z,17.33
2019-03-31T15:35:29.701Z,17.30
2019-03-31T15:37:59.089Z,16.23
2019-03-31T15:40:28.455Z,16.20
2019-03-31T15:42:57.828Z,16.63
2019-03-31T15:45:27.699Z,16.97
2019-03-31T15:47:57.085Z,15.57
2019-03-31T15:50:27.179Z,15.53
2019-03-31T15:52:56.568Z,15.27
2019-03-31T15:55:25.957Z,15.03
2019-03-31T15:57:55.329Z,14.07
2019-03-31T16:00:24.723Z,13.80
2019-03-31T16:02:54.092Z,14.77
2019-03-31T16:05:23.465Z,13.33
2019-03-31T16:07:52.975Z,12.60
2019-03-31T16:10:22.344Z,12.77
2019-03-31T16:12:51.753Z,12.40
2019-03-31T16:15:21.272Z,12.33
2019-03-31T16:17:50.663Z,12.33
2019-03-31T16:20:22.771Z,11.83
2019-03-31T16:22:52.200Z,12.20
2019-03-31T16:25:26.147Z,11.40
2019-03-31T16:27:55.901Z,12.20
2019-03-31T16:30:25.400Z,11.60
2019-03-31T16:32:54.767Z,11.40
2019-03-31T16:35:24.125Z,10.97
2019-03-31T16:37:53.559Z,11.50
2019-03-31T16:40:22.904Z,11.23
2019-03-31T16:42:52.257Z,11.33
2019-03-31T16:45:21.672Z,10.50
2019-03-31T16:47:51.029Z,9.70
2019-03-31T16:50:20.385Z,10.23
2019-03-31T16:52:52.825Z,11.10
2019-03-31T16:55:22.377Z,9.60
2019-03-31T16:57:51.739Z,10.00
2019-03-31T17:00:21.785Z,10.07
2019-03-31T17:02:51.152Z,9.80
2019-03-31T17:05:22.295Z,9.80
2019-03-31T17:07:51.613Z,9.10
2019-03-31T17:10:20.971Z,9.00
2019-03-31T17:12:50.350Z,8.43
2019-03-31T17:15:19.771Z,8.93
2019-03-31T17:17:49.128Z,9.00
2019-03-31T17:20:18.650Z,8.03
2019-03-31T17:22:48.105Z,8.93
2019-03-31T17:25:17.490Z,8.40
2019-03-31T17:27:46.852Z,9.17
2019-03-31T17:30:16.460Z,8.67
2019-03-31T17:32:45.820Z,8.83
2019-03-31T17:35:16.736Z,8.27
2019-03-31T17:37:46.243Z,8.87
2019-03-31T17:40:15.612Z,9.47
2019-03-31T17:42:44.981Z,9.00
2019-03-31T17:45:17.209Z,9.77
2019-03-31T17:47:45.658Z,7.90
2019-03-31T17:50:15.092Z,8.50
2019-03-31T17:52:44.477Z,8.73
2019-03-31T17:55:14.171Z,8.87
2019-03-31T17:57:43.537Z,9.37
2019-03-31T18:00:13.783Z,8.67
2019-03-31T18:02:43.322Z,8.53
2019-03-31T18:05:12.747Z,8.83
2019-03-31T18:07:42.151Z,7.93
2019-03-31T18:10:20.816Z,8.20
2019-03-31T18:12:50.465Z,9.00
2019-03-31T18:15:19.935Z,8.43
2019-03-31T18:17:49.315Z,8.77
2019-03-31T18:20:18.671Z,8.50
2019-03-31T18:22:48.053Z,7.60
2019-03-31T18:25:17.420Z,8.73
2019-03-31T18:27:46.796Z,7.93
2019-03-31T18:30:17.524Z,7.53
2019-03-31T18:32:46.887Z,13.83
2019-03-31T18:35:16.879Z,77.80
2019-03-31T18:37:47.206Z,29.77
2019-03-31T18:40:16.529Z,16.43
2019-03-31T18:42:45.898Z,12.00
2019-03-31T18:45:15.344Z,9.87
2019-03-31T18:47:44.699Z,7.60
2019-03-31T18:50:19.811Z,8.40
2019-03-31T18:52:49.266Z,9.30
2019-03-31T18:55:23.089Z,9.80
2019-03-31T18:58:03.864Z,8.23
2019-03-31T19:00:37.721Z,8.30
2019-03-31T19:03:17.498Z,10.60
2019-03-31T19:05:54.412Z,9.00
2019-03-31T19:08:31.615Z,9.87
2019-03-31T19:11:02.620Z,8.07
2019-03-31T19:13:33.615Z,7.27
2019-03-31T19:16:19.365Z,8.73
2019-03-31T19:19:05.212Z,11.10
2019-03-31T19:21:36.267Z,11.47
2019-03-31T19:24:12.768Z,10.53
2019-03-31T19:26:50.225Z,14.67
2019-03-31T19:29:23.937Z,15.63
2019-03-31T19:32:00.658Z,10.00
2019-03-31T19:34:34.357Z,9.40
2019-03-31T19:37:08.042Z,9.63
2019-03-31T19:39:55.587Z,8.60
2019-03-31T19:42:42.933Z,11.03
2019-03-31T19:45:14.004Z,10.83
2019-03-31T19:48:00.265Z,26.47
2019-03-31T19:50:33.957Z,14.53
2019-03-31T19:53:20.673Z,17.80
2019-03-31T19:55:51.722Z,15.07
2019-03-31T19:58:22.704Z,15.70
2019-03-31T20:01:04.109Z,23.17
2019-03-31T20:03:38.330Z,10.30
2019-03-31T20:06:18.248Z,16.90
2019-03-31T20:09:03.931Z,16.53
2019-03-31T20:11:37.655Z,14.67
2019-03-31T20:14:17.543Z,16.23
2019-03-31T20:16:49.220Z,11.45
2019-03-31T20:19:23.177Z,8.97
2019-03-31T20:21:54.177Z,7.57
2019-03-31T20:24:28.345Z,7.40
2019-03-31T20:26:59.338Z,8.73
2019-03-31T20:29:30.349Z,8.93
2019-03-31T20:32:13.656Z,7.83
2019-03-31T20:34:44.646Z,8.07
2019-03-31T20:37:18.598Z,6.37
2019-03-31T20:40:04.644Z,6.60
2019-03-31T20:42:35.635Z,6.17
2019-03-31T20:45:08.159Z,6.40
2019-03-31T20:47:38.280Z,5.93
2019-03-31T20:50:07.877Z,5.93
2019-03-31T20:52:37.231Z,5.30
2019-03-31T20:55:16.299Z,6.23
2019-03-31T20:57:38.109Z,6.10
2019-03-31T21:00:11.838Z,5.93
2019-03-31T21:02:42.284Z,6.67
2019-03-31T21:05:11.703Z,5.30
2019-03-31T21:07:41.050Z,5.47
2019-03-31T21:10:10.655Z,6.43
2019-03-31T21:12:40.013Z,6.67
2019-03-31T21:15:09.597Z,6.10
2019-03-31T21:17:39.002Z,6.40
2019-03-31T21:20:08.515Z,6.13
2019-03-31T21:22:37.862Z,5.70
2019-03-31T21:25:08.560Z,6.33
2019-03-31T21:27:37.914Z,5.77
2019-03-31T21:30:07.904Z,6.27
2019-03-31T21:32:37.273Z,6.70
2019-03-31T21:35:07.763Z,7.00
2019-03-31T21:37:37.124Z,6.97
2019-03-31T21:40:07.933Z,7.90
2019-03-31T21:42:37.281Z,8.27
2019-03-31T21:45:07.072Z,6.20
2019-03-31T21:47:36.466Z,6.83
2019-03-31T21:50:08.322Z,9.17
2019-03-31T21:52:37.716Z,6.33
2019-03-31T21:55:07.627Z,5.40
2019-03-31T21:57:36.976Z,5.50
2019-03-31T22:00:10.590Z,6.60
2019-03-31T22:02:40.503Z,5.97
2019-03-31T22:05:11.034Z,5.43
2019-03-31T22:07:40.380Z,6.00
2019-03-31T22:10:10.466Z,5.17
2019-03-31T22:12:39.825Z,4.43
2019-03-31T22:15:09.417Z,5.03
2019-03-31T22:17:38.801Z,5.90
2019-03-31T22:20:09.062Z,5.80
2019-03-31T22:22:38.407Z,5.00
2019-03-31T22:25:08.242Z,5.40
2019-03-31T22:27:37.605Z,5.17
2019-03-31T22:30:08.254Z,5.13
2019-03-31T22:32:37.620Z,6.10
2019-03-31T22:35:07.353Z,5.13
2019-03-31T22:37:36.707Z,4.53
2019-03-31T22:40:07.396Z,4.40
2019-03-31T22:42:36.743Z,9.63
2019-03-31T22:45:07.392Z,5.97
2019-03-31T22:47:37.145Z,6.63
2019-03-31T22:50:07.412Z,6.00
2019-03-31T22:52:36.762Z,4.60
2019-03-31T22:55:07.641Z,5.07
2019-03-31T22:57:37.482Z,6.90
2019-03-31T23:00:09.081Z,4.97
2019-03-31T23:02:38.487Z,4.70
2019-03-31T23:05:08.279Z,4.67
2019-03-31T23:07:39.025Z,4.80
2019-03-31T23:10:08.552Z,4.23
2019-03-31T23:12:37.902Z,5.70
2019-03-31T23:15:08.255Z,4.97
2019-03-31T23:17:37.631Z,4.60
2019-03-31T23:20:07.231Z,4.27
2019-03-31T23:22:36.575Z,4.77
2019-03-31T23:25:07.843Z,5.00
2019-03-31T23:27:37.198Z,3.97
2019-03-31T23:30:10.315Z,4.60
2019-03-31T23:32:39.713Z,4.60
2019-03-31T23:35:09.313Z,4.30
2019-03-31T23:37:38.667Z,4.77
2019-03-31T23:40:08.576Z,4.63
2019-03-31T23:42:37.920Z,3.73
2019-03-31T23:45:07.973Z,4.00
2019-03-31T23:47:37.409Z,4.87
2019-03-31T23:50:07.293Z,4.17
2019-03-31T23:52:36.623Z,4.53
2019-03-31T23:55:06.483Z,5.40
2019-03-31T23:57:44.757Z,5.10
